sensor_id;sensor_type;location;lat;lon;timestamp;P1;durP1;ratioP1;P2;durP2;ratioP2
24305;SDS011;12423;48.768;8.850;2024-03-02T00:01:40;9.95;;;5.38;;
24305;SDS011;12423;48.768;8.850;2024-03-02T00:04:07;7.55;;;4.28;;
24305;SDS011;12423;48.768;8.850;2024-03-02T00:06:35;10.35;;;4.80;;
24305;SDS011;12423;48.768;8.850;2024-03-02T00:09:02;10.80;;;4.95;;
24305;SDS011;12423;48.768;8.850;2024-03-02T00:11:31;9.90;;;5.45;;
24305;SDS011;12423;48.768;8.850;2024-03-02T00:14:01;8.27;;;4.90;;
24305;SDS011;12423;48.768;8.850;2024-03-02T00:16:30;9.65;;;4.97;;
24305;SDS011;12423;48.768;8.850;2024-03-02T00:19:01;10.68;;;5.50;;
24305;SDS011;12423;48.768;8.850;2024-03-02T00:21:29;10.60;;;5.53;;
24305;SDS011;12423;48.768;8.850;2024-03-02T00:23:57;8.55;;;5.25;;
24305;SDS011;12423;48.768;8.850;2024-03-02T00:26:24;10.57;;;5.20;;
24305;SDS011;12423;48.768;8.850;2024-03-02T00:28:54;14.45;;;5.78;;
24305;SDS011;12423;48.768;8.850;2024-03-02T00:31:23;9.45;;;5.30;;
24305;SDS011;12423;48.768;8.850;2024-03-02T00:33:51;9.13;;;4.85;;
24305;SDS011;12423;48.768;8.850;2024-03-02T00:36:22;8.57;;;4.88;;
24305;SDS011;12423;48.768;8.850;2024-03-02T00:38:51;12.57;;;5.68;;
24305;SDS011;12423;48.768;8.850;2024-03-02T00:41:21;9.75;;;4.75;;
24305;SDS011;12423;48.768;8.850;2024-03-02T00:44:00;11.93;;;5.68;;
24305;SDS011;12423;48.768;8.850;2024-03-02T00:46:29;8.88;;;5.38;;
24305;SDS011;12423;48.768;8.850;2024-03-02T00:51:25;9.20;;;4.95;;
24305;SDS011;12423;48.768;8.850;2024-03-02T00:53:53;9.75;;;5.30;;
24305;SDS011;12423;48.768;8.850;2024-03-02T00:56:23;8.30;;;4.78;;
24305;SDS011;12423;48.768;8.850;2024-03-02T00:58:51;9.45;;;5.30;;
24305;SDS011;12423;48.768;8.850;2024-03-02T01:01:20;14.50;;;5.90;;
24305;SDS011;12423;48.768;8.850;2024-03-02T01:03:48;10.43;;;5.00;;
24305;SDS011;12423;48.768;8.850;2024-03-02T01:06:16;10.73;;;5.27;;
24305;SDS011;12423;48.768;8.850;2024-03-02T01:08:44;9.00;;;5.27;;
24305;SDS011;12423;48.768;8.850;2024-03-02T01:11:12;11.02;;;5.53;;
24305;SDS011;12423;48.768;8.850;2024-03-02T01:13:40;11.65;;;5.95;;
24305;SDS011;12423;48.768;8.850;2024-03-02T01:16:07;8.50;;;5.03;;
24305;SDS011;12423;48.768;8.850;2024-03-02T01:18:36;8.90;;;5.10;;
24305;SDS011;12423;48.768;8.850;2024-03-02T01:21:04;9.75;;;5.25;;
24305;SDS011;12423;48.768;8.850;2024-03-02T01:23:32;8.98;;;5.10;;
24305;SDS011;12423;48.768;8.850;2024-03-02T01:25:59;9.38;;;5.47;;
24305;SDS011;12423;48.768;8.850;2024-03-02T01:28:27;9.57;;;5.57;;
24305;SDS011;12423;48.768;8.850;2024-03-02T01:30:54;11.38;;;6.20;;
24305;SDS011;12423;48.768;8.850;2024-03-02T01:33:22;9.80;;;5.38;;
24305;SDS011;12423;48.768;8.850;2024-03-02T01:35:51;10.48;;;5.80;;
24305;SDS011;12423;48.768;8.850;2024-03-02T01:38:18;11.27;;;6.07;;
24305;SDS011;12423;48.768;8.850;2024-03-02T01:40:46;9.63;;;5.72;;
24305;SDS011;12423;48.768;8.850;2024-03-02T01:43:14;10.60;;;5.50;;
24305;SDS011;12423;48.768;8.850;2024-03-02T01:45:42;13.07;;;6.30;;
24305;SDS011;12423;48.768;8.850;2024-03-02T01:48:09;12.73;;;6.30;;
24305;SDS011;12423;48.768;8.850;2024-03-02T01:50:37;12.07;;;6.22;;
24305;SDS011;12423;48.768;8.850;2024-03-02T01:53:06;13.13;;;6.30;;
24305;SDS011;12423;48.768;8.850;2024-03-02T01:55:36;11.43;;;6.43;;
24305;SDS011;12423;48.768;8.850;2024-03-02T01:58:03;13.02;;;6.07;;
24305;SDS011;12423;48.768;8.850;2024-03-02T02:00:31;11.50;;;6.00;;
24305;SDS011;12423;48.768;8.850;2024-03-02T02:02:58;10.95;;;6.43;;
24305;SDS011;12423;48.768;8.850;2024-03-02T02:05:26;13.50;;;6.90;;
24305;SDS011;12423;48.768;8.850;2024-03-02T02:07:53;14.80;;;6.88;;
24305;SDS011;12423;48.768;8.850;2024-03-02T02:10:22;10.52;;;6.00;;
24305;SDS011;12423;48.768;8.850;2024-03-02T02:12:50;12.65;;;6.43;;
24305;SDS011;12423;48.768;8.850;2024-03-02T02:15:21;12.07;;;6.13;;
24305;SDS011;12423;48.768;8.850;2024-03-02T02:17:49;9.48;;;5.93;;
24305;SDS011;12423;48.768;8.850;2024-03-02T02:20:16;12.43;;;6.57;;
24305;SDS011;12423;48.768;8.850;2024-03-02T02:22:59;15.25;;;6.95;;
24305;SDS011;12423;48.768;8.850;2024-03-02T02:25:26;13.07;;;6.57;;
24305;SDS011;12423;48.768;8.850;2024-03-02T02:27:54;12.13;;;6.70;;
24305;SDS011;12423;48.768;8.850;2024-03-02T02:30:23;12.20;;;6.53;;
24305;SDS011;12423;48.768;8.850;2024-03-02T02:32:50;12.55;;;6.57;;
24305;SDS011;12423;48.768;8.850;2024-03-02T02:35:18;13.20;;;6.28;;
24305;SDS011;12423;48.768;8.850;2024-03-02T02:37:46;11.88;;;6.53;;
24305;SDS011;12423;48.768;8.850;2024-03-02T02:40:15;12.85;;;6.35;;
24305;SDS011;12423;48.768;8.850;2024-03-02T02:42:45;11.57;;;6.13;;
24305;SDS011;12423;48.768;8.850;2024-03-02T02:45:13;10.98;;;6.47;;
24305;SDS011;12423;48.768;8.850;2024-03-02T02:47:41;12.20;;;6.78;;
24305;SDS011;12423;48.768;8.850;2024-03-02T02:50:09;12.93;;;7.18;;
24305;SDS011;12423;48.768;8.850;2024-03-02T02:52:37;15.27;;;6.82;;
24305;SDS011;12423;48.768;8.850;2024-03-02T02:55:06;14.20;;;7.40;;
24305;SDS011;12423;48.768;8.850;2024-03-02T02:57:36;12.83;;;7.93;;
24305;SDS011;12423;48.768;8.850;2024-03-02T03:00:05;12.23;;;6.90;;
24305;SDS011;12423;48.768;8.850;2024-03-02T03:02:37;12.27;;;6.78;;
24305;SDS011;12423;48.768;8.850;2024-03-02T03:05:06;13.73;;;7.32;;
24305;SDS011;12423;48.768;8.850;2024-03-02T03:07:33;13.18;;;7.22;;
24305;SDS011;12423;48.768;8.850;2024-03-02T03:10:03;13.82;;;6.95;;
24305;SDS011;12423;48.768;8.850;2024-03-02T03:12:30;12.95;;;6.88;;
24305;SDS011;12423;48.768;8.850;2024-03-02T03:14:59;12.82;;;6.78;;
24305;SDS011;12423;48.768;8.850;2024-03-02T03:17:27;14.73;;;7.15;;
24305;SDS011;12423;48.768;8.850;2024-03-02T03:19:55;12.85;;;7.20;;
24305;SDS011;12423;48.768;8.850;2024-03-02T03:22:22;12.63;;;6.57;;
24305;SDS011;12423;48.768;8.850;2024-03-02T03:24:50;12.07;;;6.85;;
24305;SDS011;12423;48.768;8.850;2024-03-02T03:27:18;12.77;;;6.63;;
24305;SDS011;12423;48.768;8.850;2024-03-02T03:29:46;14.77;;;7.07;;
24305;SDS011;12423;48.768;8.850;2024-03-02T03:32:15;14.30;;;7.05;;
24305;SDS011;12423;48.768;8.850;2024-03-02T03:34:43;11.88;;;6.40;;
24305;SDS011;12423;48.768;8.850;2024-03-02T03:37:10;16.17;;;7.57;;
24305;SDS011;12423;48.768;8.850;2024-03-02T03:39:38;11.68;;;7.03;;
24305;SDS011;12423;48.768;8.850;2024-03-02T03:42:05;11.88;;;7.22;;
24305;SDS011;12423;48.768;8.850;2024-03-02T03:44:33;14.02;;;7.10;;
24305;SDS011;12423;48.768;8.850;2024-03-02T03:47:00;12.57;;;6.60;;
24305;SDS011;12423;48.768;8.850;2024-03-02T03:49:30;13.55;;;6.90;;
24305;SDS011;12423;48.768;8.850;2024-03-02T03:51:57;13.00;;;6.55;;
24305;SDS011;12423;48.768;8.850;2024-03-02T03:54:25;15.02;;;7.97;;
24305;SDS011;12423;48.768;8.850;2024-03-02T03:56:53;10.77;;;6.28;;
24305;SDS011;12423;48.768;8.850;2024-03-02T03:59:20;15.38;;;7.45;;
24305;SDS011;12423;48.768;8.850;2024-03-02T04:01:48;11.15;;;6.03;;
24305;SDS011;12423;48.768;8.850;2024-03-02T04:04:15;12.27;;;6.93;;
24305;SDS011;12423;48.768;8.850;2024-03-02T04:06:44;13.10;;;6.85;;
24305;SDS011;12423;48.768;8.850;2024-03-02T04:09:12;12.75;;;7.10;;
24305;SDS011;12423;48.768;8.850;2024-03-02T04:11:39;13.05;;;7.18;;
24305;SDS011;12423;48.768;8.850;2024-03-02T04:14:07;13.05;;;7.07;;
24305;SDS011;12423;48.768;8.850;2024-03-02T04:16:34;12.52;;;6.90;;
24305;SDS011;12423;48.768;8.850;2024-03-02T04:19:02;11.85;;;6.40;;
24305;SDS011;12423;48.768;8.850;2024-03-02T04:21:30;11.63;;;6.07;;
24305;SDS011;12423;48.768;8.850;2024-03-02T04:23:59;14.30;;;6.72;;
24305;SDS011;12423;48.768;8.850;2024-03-02T04:26:26;13.55;;;7.22;;
24305;SDS011;12423;48.768;8.850;2024-03-02T04:28:54;17.80;;;7.43;;
24305;SDS011;12423;48.768;8.850;2024-03-02T04:31:22;12.27;;;6.07;;
24305;SDS011;12423;48.768;8.850;2024-03-02T04:33:49;11.75;;;6.55;;
24305;SDS011;12423;48.768;8.850;2024-03-02T04:36:17;12.88;;;6.32;;
24305;SDS011;12423;48.768;8.850;2024-03-02T04:38:44;12.30;;;6.43;;
24305;SDS011;12423;48.768;8.850;2024-03-02T04:41:13;12.68;;;6.60;;
24305;SDS011;12423;48.768;8.850;2024-03-02T04:43:40;13.77;;;6.93;;
24305;SDS011;12423;48.768;8.850;2024-03-02T04:46:08;15.30;;;6.75;;
24305;SDS011;12423;48.768;8.850;2024-03-02T04:48:36;11.68;;;6.88;;
24305;SDS011;12423;48.768;8.850;2024-03-02T04:51:03;12.80;;;6.85;;
24305;SDS011;12423;48.768;8.850;2024-03-02T04:53:31;14.25;;;7.25;;
24305;SDS011;12423;48.768;8.850;2024-03-02T04:55:58;12.45;;;6.88;;
24305;SDS011;12423;48.768;8.850;2024-03-02T04:58:48;12.45;;;6.35;;
24305;SDS011;12423;48.768;8.850;2024-03-02T05:01:15;12.27;;;6.68;;
24305;SDS011;12423;48.768;8.850;2024-03-02T05:03:44;14.60;;;7.15;;
24305;SDS011;12423;48.768;8.850;2024-03-02T05:06:11;13.35;;;6.32;;
24305;SDS011;12423;48.768;8.850;2024-03-02T05:08:39;11.52;;;5.35;;
24305;SDS011;12423;48.768;8.850;2024-03-02T05:11:06;12.63;;;7.13;;
24305;SDS011;12423;48.768;8.850;2024-03-02T05:13:52;14.00;;;6.75;;
24305;SDS011;12423;48.768;8.850;2024-03-02T05:16:20;15.32;;;7.60;;
24305;SDS011;12423;48.768;8.850;2024-03-02T05:18:48;10.37;;;5.43;;
24305;SDS011;12423;48.768;8.850;2024-03-02T05:21:16;14.27;;;6.57;;
24305;SDS011;12423;48.768;8.850;2024-03-02T05:23:44;14.15;;;7.20;;
24305;SDS011;12423;48.768;8.850;2024-03-02T05:26:11;10.90;;;5.50;;
24305;SDS011;12423;48.768;8.850;2024-03-02T05:28:39;9.27;;;5.40;;
24305;SDS011;12423;48.768;8.850;2024-03-02T05:31:10;16.40;;;6.97;;
24305;SDS011;12423;48.768;8.850;2024-03-02T05:33:37;11.23;;;6.30;;
24305;SDS011;12423;48.768;8.850;2024-03-02T05:36:05;13.43;;;7.25;;
24305;SDS011;12423;48.768;8.850;2024-03-02T05:38:34;14.15;;;6.90;;
24305;SDS011;12423;48.768;8.850;2024-03-02T05:41:02;9.65;;;4.90;;
24305;SDS011;12423;48.768;8.850;2024-03-02T05:43:29;13.40;;;7.47;;
24305;SDS011;12423;48.768;8.850;2024-03-02T05:45:57;14.35;;;7.55;;
24305;SDS011;12423;48.768;8.850;2024-03-02T05:48:25;13.68;;;6.70;;
24305;SDS011;12423;48.768;8.850;2024-03-02T05:50:53;14.27;;;7.68;;
24305;SDS011;12423;48.768;8.850;2024-03-02T05:53:20;12.15;;;5.82;;
24305;SDS011;12423;48.768;8.850;2024-03-02T05:55:48;12.95;;;6.53;;
24305;SDS011;12423;48.768;8.850;2024-03-02T05:58:19;13.10;;;7.20;;
24305;SDS011;12423;48.768;8.850;2024-03-02T06:03:27;12.40;;;5.60;;
24305;SDS011;12423;48.768;8.850;2024-03-02T06:05:55;14.25;;;7.85;;
24305;SDS011;12423;48.768;8.850;2024-03-02T06:08:23;12.68;;;6.72;;
24305;SDS011;12423;48.768;8.850;2024-03-02T06:10:50;13.23;;;6.68;;
24305;SDS011;12423;48.768;8.850;2024-03-02T06:13:18;15.98;;;7.60;;
24305;SDS011;12423;48.768;8.850;2024-03-02T06:15:45;15.32;;;6.95;;
24305;SDS011;12423;48.768;8.850;2024-03-02T06:18:13;12.45;;;6.07;;
24305;SDS011;12423;48.768;8.850;2024-03-02T06:20:42;16.33;;;6.90;;
24305;SDS011;12423;48.768;8.850;2024-03-02T06:23:09;14.20;;;6.78;;
24305;SDS011;12423;48.768;8.850;2024-03-02T06:25:37;12.60;;;6.80;;
24305;SDS011;12423;48.768;8.850;2024-03-02T06:28:05;12.75;;;6.55;;
24305;SDS011;12423;48.768;8.850;2024-03-02T06:30:33;14.85;;;7.53;;
24305;SDS011;12423;48.768;8.850;2024-03-02T06:33:01;12.00;;;6.35;;
24305;SDS011;12423;48.768;8.850;2024-03-02T06:35:30;12.80;;;6.55;;
24305;SDS011;12423;48.768;8.850;2024-03-02T06:37:59;14.60;;;7.15;;
24305;SDS011;12423;48.768;8.850;2024-03-02T06:40:26;12.02;;;6.75;;
24305;SDS011;12423;48.768;8.850;2024-03-02T06:42:53;14.07;;;6.30;;
24305;SDS011;12423;48.768;8.850;2024-03-02T06:45:21;15.50;;;7.57;;
24305;SDS011;12423;48.768;8.850;2024-03-02T06:47:49;12.02;;;6.45;;
24305;SDS011;12423;48.768;8.850;2024-03-02T06:50:16;13.25;;;6.70;;
24305;SDS011;12423;48.768;8.850;2024-03-02T06:52:44;15.88;;;6.90;;
24305;SDS011;12423;48.768;8.850;2024-03-02T06:55:13;12.80;;;6.10;;
24305;SDS011;12423;48.768;8.850;2024-03-02T06:57:40;10.43;;;6.00;;
24305;SDS011;12423;48.768;8.850;2024-03-02T07:00:08;11.82;;;5.97;;
24305;SDS011;12423;48.768;8.850;2024-03-02T07:02:36;14.93;;;7.18;;
24305;SDS011;12423;48.768;8.850;2024-03-02T07:05:03;14.43;;;7.00;;
24305;SDS011;12423;48.768;8.850;2024-03-02T07:07:33;12.98;;;6.97;;
24305;SDS011;12423;48.768;8.850;2024-03-02T07:10:01;13.25;;;6.43;;
24305;SDS011;12423;48.768;8.850;2024-03-02T07:12:30;12.00;;;7.13;;
24305;SDS011;12423;48.768;8.850;2024-03-02T07:14:57;14.15;;;6.85;;
24305;SDS011;12423;48.768;8.850;2024-03-02T07:17:44;13.88;;;7.15;;
24305;SDS011;12423;48.768;8.850;2024-03-02T07:20:12;13.05;;;6.38;;
24305;SDS011;12423;48.768;8.850;2024-03-02T07:22:40;11.63;;;6.47;;
24305;SDS011;12423;48.768;8.850;2024-03-02T07:25:10;10.00;;;5.70;;
24305;SDS011;12423;48.768;8.850;2024-03-02T07:27:42;15.65;;;6.55;;
24305;SDS011;12423;48.768;8.850;2024-03-02T07:30:13;13.23;;;6.38;;
24305;SDS011;12423;48.768;8.850;2024-03-02T07:32:42;12.40;;;6.50;;
24305;SDS011;12423;48.768;8.850;2024-03-02T07:35:12;13.75;;;6.88;;
24305;SDS011;12423;48.768;8.850;2024-03-02T07:37:41;14.90;;;6.87;;
24305;SDS011;12423;48.768;8.850;2024-03-02T07:40:09;12.82;;;6.05;;
24305;SDS011;12423;48.768;8.850;2024-03-02T07:42:38;9.10;;;5.40;;
24305;SDS011;12423;48.768;8.850;2024-03-02T07:45:07;13.73;;;7.63;;
24305;SDS011;12423;48.768;8.850;2024-03-02T07:50:03;16.58;;;8.02;;
24305;SDS011;12423;48.768;8.850;2024-03-02T07:52:32;10.77;;;4.63;;
24305;SDS011;12423;48.768;8.850;2024-03-02T07:55:00;16.15;;;7.13;;
24305;SDS011;12423;48.768;8.850;2024-03-02T07:57:27;13.90;;;5.93;;
24305;SDS011;12423;48.768;8.850;2024-03-02T07:59:55;14.00;;;7.35;;
24305;SDS011;12423;48.768;8.850;2024-03-02T08:02:24;16.92;;;7.25;;
24305;SDS011;12423;48.768;8.850;2024-03-02T08:04:51;13.73;;;7.18;;
24305;SDS011;12423;48.768;8.850;2024-03-02T08:07:19;13.80;;;7.43;;
24305;SDS011;12423;48.768;8.850;2024-03-02T08:09:46;13.73;;;7.30;;
24305;SDS011;12423;48.768;8.850;2024-03-02T08:12:14;14.95;;;8.23;;
24305;SDS011;12423;48.768;8.850;2024-03-02T08:14:41;12.50;;;6.32;;
24305;SDS011;12423;48.768;8.850;2024-03-02T08:17:09;11.13;;;6.32;;
24305;SDS011;12423;48.768;8.850;2024-03-02T08:19:38;12.17;;;6.90;;
24305;SDS011;12423;48.768;8.850;2024-03-02T08:22:06;13.00;;;7.50;;
24305;SDS011;12423;48.768;8.850;2024-03-02T08:24:34;15.80;;;8.82;;
24305;SDS011;12423;48.768;8.850;2024-03-02T08:27:02;16.88;;;7.85;;
24305;SDS011;12423;48.768;8.850;2024-03-02T08:29:29;11.68;;;6.38;;
24305;SDS011;12423;48.768;8.850;2024-03-02T08:31:57;14.75;;;7.57;;
24305;SDS011;12423;48.768;8.850;2024-03-02T08:34:25;9.98;;;5.82;;
24305;SDS011;12423;48.768;8.850;2024-03-02T08:36:54;12.20;;;6.50;;
24305;SDS011;12423;48.768;8.850;2024-03-02T08:39:21;13.75;;;7.47;;
24305;SDS011;12423;48.768;8.850;2024-03-02T08:41:49;11.32;;;6.57;;
24305;SDS011;12423;48.768;8.850;2024-03-02T08:44:16;10.68;;;6.18;;
24305;SDS011;12423;48.768;8.850;2024-03-02T08:46:44;10.73;;;5.65;;
24305;SDS011;12423;48.768;8.850;2024-03-02T08:49:11;10.40;;;4.78;;
24305;SDS011;12423;48.768;8.850;2024-03-02T08:51:39;11.60;;;6.13;;
24305;SDS011;12423;48.768;8.850;2024-03-02T08:54:08;11.85;;;6.28;;
24305;SDS011;12423;48.768;8.850;2024-03-02T08:56:35;10.55;;;5.97;;
24305;SDS011;12423;48.768;8.850;2024-03-02T08:59:03;10.25;;;6.70;;
24305;SDS011;12423;48.768;8.850;2024-03-02T09:01:30;12.10;;;6.97;;
24305;SDS011;12423;48.768;8.850;2024-03-02T09:03:58;13.02;;;6.32;;
24305;SDS011;12423;48.768;8.850;2024-03-02T09:06:26;11.85;;;5.95;;
24305;SDS011;12423;48.768;8.850;2024-03-02T09:08:53;11.60;;;6.72;;
24305;SDS011;12423;48.768;8.850;2024-03-02T09:11:22;11.43;;;6.57;;
24305;SDS011;12423;48.768;8.850;2024-03-02T09:13:50;8.77;;;5.35;;
24305;SDS011;12423;48.768;8.850;2024-03-02T09:16:17;9.68;;;5.78;;
24305;SDS011;12423;48.768;8.850;2024-03-02T09:18:45;9.07;;;5.40;;
24305;SDS011;12423;48.768;8.850;2024-03-02T09:21:13;12.95;;;6.35;;
24305;SDS011;12423;48.768;8.850;2024-03-02T09:23:41;11.38;;;6.45;;
24305;SDS011;12423;48.768;8.850;2024-03-02T09:26:10;9.00;;;5.65;;
24305;SDS011;12423;48.768;8.850;2024-03-02T09:28:39;10.80;;;6.40;;
24305;SDS011;12423;48.768;8.850;2024-03-02T09:31:09;9.77;;;5.88;;
24305;SDS011;12423;48.768;8.850;2024-03-02T09:33:38;9.93;;;5.85;;
24305;SDS011;12423;48.768;8.850;2024-03-02T09:36:12;10.77;;;6.60;;
24305;SDS011;12423;48.768;8.850;2024-03-02T09:38:43;13.25;;;7.47;;
24305;SDS011;12423;48.768;8.850;2024-03-02T09:41:11;12.00;;;6.65;;
24305;SDS011;12423;48.768;8.850;2024-03-02T09:43:40;9.70;;;5.85;;
24305;SDS011;12423;48.768;8.850;2024-03-02T09:46:08;10.48;;;5.10;;
24305;SDS011;12423;48.768;8.850;2024-03-02T09:48:36;9.02;;;5.22;;
24305;SDS011;12423;48.768;8.850;2024-03-02T09:51:04;13.35;;;5.05;;
24305;SDS011;12423;48.768;8.850;2024-03-02T09:53:32;6.90;;;4.20;;
24305;SDS011;12423;48.768;8.850;2024-03-02T09:56:00;9.88;;;5.50;;
24305;SDS011;12423;48.768;8.850;2024-03-02T09:58:28;9.75;;;5.43;;
24305;SDS011;12423;48.768;8.850;2024-03-02T10:00:57;9.13;;;4.88;;
24305;SDS011;12423;48.768;8.850;2024-03-02T10:03:24;9.40;;;4.82;;
24305;SDS011;12423;48.768;8.850;2024-03-02T10:05:52;9.25;;;5.50;;
24305;SDS011;12423;48.768;8.850;2024-03-02T10:08:20;8.10;;;4.90;;
24305;SDS011;12423;48.768;8.850;2024-03-02T10:10:47;8.13;;;4.30;;
24305;SDS011;12423;48.768;8.850;2024-03-02T10:13:15;7.07;;;4.07;;
24305;SDS011;12423;48.768;8.850;2024-03-02T10:15:44;6.65;;;3.97;;
24305;SDS011;12423;48.768;8.850;2024-03-02T10:18:14;6.53;;;4.38;;
24305;SDS011;12423;48.768;8.850;2024-03-02T10:20:52;7.60;;;3.90;;
24305;SDS011;12423;48.768;8.850;2024-03-02T10:23:20;5.45;;;3.10;;
24305;SDS011;12423;48.768;8.850;2024-03-02T10:25:47;5.60;;;2.97;;
24305;SDS011;12423;48.768;8.850;2024-03-02T10:28:23;5.53;;;3.40;;
24305;SDS011;12423;48.768;8.850;2024-03-02T10:30:51;6.20;;;3.20;;
24305;SDS011;12423;48.768;8.850;2024-03-02T10:33:21;6.88;;;3.30;;
24305;SDS011;12423;48.768;8.850;2024-03-02T10:35:49;6.57;;;3.85;;
24305;SDS011;12423;48.768;8.850;2024-03-02T10:38:17;5.82;;;3.60;;
24305;SDS011;12423;48.768;8.850;2024-03-02T10:40:46;6.80;;;3.25;;
24305;SDS011;12423;48.768;8.850;2024-03-02T10:43:14;5.95;;;3.40;;
24305;SDS011;12423;48.768;8.850;2024-03-02T10:45:42;7.35;;;3.25;;
24305;SDS011;12423;48.768;8.850;2024-03-02T10:48:09;6.00;;;3.67;;
24305;SDS011;12423;48.768;8.850;2024-03-02T10:50:38;6.70;;;3.05;;
24305;SDS011;12423;48.768;8.850;2024-03-02T10:53:06;4.70;;;2.83;;
24305;SDS011;12423;48.768;8.850;2024-03-02T10:55:33;4.97;;;2.70;;
24305;SDS011;12423;48.768;8.850;2024-03-02T10:58:01;10.88;;;3.70;;
24305;SDS011;12423;48.768;8.850;2024-03-02T11:00:35;7.07;;;3.10;;
24305;SDS011;12423;48.768;8.850;2024-03-02T11:03:04;4.43;;;2.03;;
24305;SDS011;12423;48.768;8.850;2024-03-02T11:05:34;3.70;;;2.10;;
24305;SDS011;12423;48.768;8.850;2024-03-02T11:08:06;3.85;;;2.05;;
24305;SDS011;12423;48.768;8.850;2024-03-02T11:10:34;3.13;;;1.75;;
24305;SDS011;12423;48.768;8.850;2024-03-02T11:13:04;3.20;;;1.70;;
24305;SDS011;12423;48.768;8.850;2024-03-02T11:15:33;2.38;;;1.27;;
24305;SDS011;12423;48.768;8.850;2024-03-02T11:18:00;2.38;;;1.10;;
24305;SDS011;12423;48.768;8.850;2024-03-02T11:20:30;2.72;;;1.00;;
24305;SDS011;12423;48.768;8.850;2024-03-02T11:23:02;3.90;;;1.00;;
24305;SDS011;12423;48.768;8.850;2024-03-02T11:25:32;2.78;;;0.90;;
24305;SDS011;12423;48.768;8.850;2024-03-02T11:28:01;1.85;;;1.00;;
24305;SDS011;12423;48.768;8.850;2024-03-02T11:33:15;1.60;;;0.85;;
24305;SDS011;12423;48.768;8.850;2024-03-02T11:35:50;2.03;;;0.93;;
24305;SDS011;12423;48.768;8.850;2024-03-02T11:38:17;2.13;;;0.90;;
24305;SDS011;12423;48.768;8.850;2024-03-02T11:40:46;1.60;;;0.90;;
24305;SDS011;12423;48.768;8.850;2024-03-02T11:43:14;1.80;;;0.90;;
24305;SDS011;12423;48.768;8.850;2024-03-02T11:45:41;1.90;;;1.10;;
24305;SDS011;12423;48.768;8.850;2024-03-02T11:48:11;1.55;;;0.85;;
24305;SDS011;12423;48.768;8.850;2024-03-02T11:50:40;1.42;;;0.80;;
24305;SDS011;12423;48.768;8.850;2024-03-02T11:53:08;1.55;;;0.90;;
24305;SDS011;12423;48.768;8.850;2024-03-02T11:55:36;1.30;;;0.60;;
24305;SDS011;12423;48.768;8.850;2024-03-02T11:58:05;1.73;;;0.68;;
24305;SDS011;12423;48.768;8.850;2024-03-02T12:00:33;1.63;;;0.80;;
24305;SDS011;12423;48.768;8.850;2024-03-02T12:03:02;1.13;;;0.60;;
24305;SDS011;12423;48.768;8.850;2024-03-02T12:05:30;2.10;;;0.80;;
24305;SDS011;12423;48.768;8.850;2024-03-02T12:07:58;2.38;;;1.10;;
24305;SDS011;12423;48.768;8.850;2024-03-02T12:10:26;1.80;;;0.70;;
24305;SDS011;12423;48.768;8.850;2024-03-02T12:12:57;5.03;;;0.93;;
24305;SDS011;12423;48.768;8.850;2024-03-02T12:15:27;1.38;;;0.60;;
24305;SDS011;12423;48.768;8.850;2024-03-02T12:17:55;1.08;;;0.63;;
24305;SDS011;12423;48.768;8.850;2024-03-02T12:20:23;0.90;;;0.50;;
24305;SDS011;12423;48.768;8.850;2024-03-02T12:22:51;1.45;;;0.80;;
24305;SDS011;12423;48.768;8.850;2024-03-02T12:25:19;1.27;;;0.80;;
24305;SDS011;12423;48.768;8.850;2024-03-02T12:27:47;1.58;;;0.80;;
24305;SDS011;12423;48.768;8.850;2024-03-02T12:30:16;0.80;;;0.60;;
24305;SDS011;12423;48.768;8.850;2024-03-02T12:32:45;1.08;;;0.52;;
24305;SDS011;12423;48.768;8.850;2024-03-02T12:35:14;3.45;;;1.80;;
24305;SDS011;12423;48.768;8.850;2024-03-02T12:37:44;1.48;;;0.60;;
24305;SDS011;12423;48.768;8.850;2024-03-02T12:42:39;1.55;;;0.57;;
24305;SDS011;12423;48.768;8.850;2024-03-02T12:45:08;0.70;;;0.45;;
24305;SDS011;12423;48.768;8.850;2024-03-02T12:47:36;1.30;;;0.50;;
24305;SDS011;12423;48.768;8.850;2024-03-02T12:50:06;2.40;;;0.50;;
24305;SDS011;12423;48.768;8.850;2024-03-02T12:52:33;0.75;;;0.50;;
24305;SDS011;12423;48.768;8.850;2024-03-02T12:55:01;0.90;;;0.50;;
24305;SDS011;12423;48.768;8.850;2024-03-02T12:57:31;0.98;;;0.57;;
24305;SDS011;12423;48.768;8.850;2024-03-02T12:59:59;2.50;;;0.55;;
24305;SDS011;12423;48.768;8.850;2024-03-02T13:02:27;0.87;;;0.60;;
24305;SDS011;12423;48.768;8.850;2024-03-02T13:04:55;0.80;;;0.40;;
24305;SDS011;12423;48.768;8.850;2024-03-02T13:07:24;0.93;;;0.50;;
24305;SDS011;12423;48.768;8.850;2024-03-02T13:09:52;1.00;;;0.50;;
24305;SDS011;12423;48.768;8.850;2024-03-02T13:12:21;0.98;;;0.50;;
24305;SDS011;12423;48.768;8.850;2024-03-02T13:14:49;1.65;;;0.90;;
24305;SDS011;12423;48.768;8.850;2024-03-02T13:17:17;1.15;;;0.70;;
24305;SDS011;12423;48.768;8.850;2024-03-02T13:19:51;1.52;;;0.65;;
24305;SDS011;12423;48.768;8.850;2024-03-02T13:22:21;2.05;;;0.80;;
24305;SDS011;12423;48.768;8.850;2024-03-02T13:24:51;2.67;;;0.70;;
24305;SDS011;12423;48.768;8.850;2024-03-02T13:27:18;2.47;;;1.17;;
24305;SDS011;12423;48.768;8.850;2024-03-02T13:29:46;2.03;;;0.80;;
24305;SDS011;12423;48.768;8.850;2024-03-02T13:32:14;1.30;;;0.90;;
24305;SDS011;12423;48.768;8.850;2024-03-02T13:34:42;1.75;;;0.85;;
24305;SDS011;12423;48.768;8.850;2024-03-02T13:37:10;1.52;;;0.85;;
24305;SDS011;12423;48.768;8.850;2024-03-02T13:39:37;3.08;;;1.10;;
24305;SDS011;12423;48.768;8.850;2024-03-02T13:42:10;2.35;;;1.08;;
24305;SDS011;12423;48.768;8.850;2024-03-02T13:44:39;2.10;;;1.10;;
24305;SDS011;12423;48.768;8.850;2024-03-02T13:47:08;1.40;;;0.85;;
24305;SDS011;12423;48.768;8.850;2024-03-02T13:49:35;2.25;;;1.10;;
24305;SDS011;12423;48.768;8.850;2024-03-02T13:52:05;2.67;;;1.08;;
24305;SDS011;12423;48.768;8.850;2024-03-02T13:54:37;2.17;;;0.98;;
24305;SDS011;12423;48.768;8.850;2024-03-02T13:57:05;1.30;;;0.85;;
24305;SDS011;12423;48.768;8.850;2024-03-02T13:59:34;2.10;;;1.15;;
24305;SDS011;12423;48.768;8.850;2024-03-02T14:02:02;2.17;;;1.10;;
24305;SDS011;12423;48.768;8.850;2024-03-02T14:04:30;1.88;;;0.93;;
24305;SDS011;12423;48.768;8.850;2024-03-02T14:06:59;1.70;;;0.90;;
24305;SDS011;12423;48.768;8.850;2024-03-02T14:09:27;1.80;;;0.98;;
24305;SDS011;12423;48.768;8.850;2024-03-02T14:11:55;1.48;;;0.80;;
24305;SDS011;12423;48.768;8.850;2024-03-02T14:14:23;1.63;;;0.80;;
24305;SDS011;12423;48.768;8.850;2024-03-02T14:16:52;1.67;;;0.80;;
24305;SDS011;12423;48.768;8.850;2024-03-02T14:19:20;1.35;;;0.85;;
24305;SDS011;12423;48.768;8.850;2024-03-02T14:21:48;2.17;;;1.20;;
24305;SDS011;12423;48.768;8.850;2024-03-02T14:24:16;2.47;;;1.23;;
24305;SDS011;12423;48.768;8.850;2024-03-02T14:26:44;2.20;;;1.10;;
24305;SDS011;12423;48.768;8.850;2024-03-02T14:29:11;2.42;;;0.90;;
24305;SDS011;12423;48.768;8.850;2024-03-02T14:31:39;1.70;;;0.93;;
24305;SDS011;12423;48.768;8.850;2024-03-02T14:34:08;2.58;;;1.20;;
24305;SDS011;12423;48.768;8.850;2024-03-02T14:36:35;1.65;;;1.00;;
24305;SDS011;12423;48.768;8.850;2024-03-02T14:39:03;2.40;;;1.10;;
24305;SDS011;12423;48.768;8.850;2024-03-02T14:41:34;1.52;;;0.90;;
24305;SDS011;12423;48.768;8.850;2024-03-02T14:44:02;2.20;;;1.00;;
24305;SDS011;12423;48.768;8.850;2024-03-02T14:46:29;1.88;;;0.90;;
24305;SDS011;12423;48.768;8.850;2024-03-02T14:48:57;2.67;;;1.00;;
24305;SDS011;12423;48.768;8.850;2024-03-02T14:51:26;2.03;;;1.10;;
24305;SDS011;12423;48.768;8.850;2024-03-02T14:53:54;9.45;;;3.10;;
24305;SDS011;12423;48.768;8.850;2024-03-02T14:56:21;4.25;;;1.70;;
24305;SDS011;12423;48.768;8.850;2024-03-02T14:58:48;2.05;;;1.10;;
24305;SDS011;12423;48.768;8.850;2024-03-02T15:01:17;16.83;;;14.25;;